Amado, Arizona
Current Conditions -  °F | °C
As of 12:54 AM on Friday 31 Oct 2014 (Local Time) from KOLS Reporting Station
Clear Clear  
Wind Chill: 56°   Ceiling: Unl
Heat Index: 56°   Visibility: 10mi
Dew Point: 42°   Wind: 5mph
Humidity: 60%   Direction: 30°NNE
Pressure: 30.1"   Gusts: NA
Location:  31.71°N, 111.07°W
Report Text: KOLS 310754Z AUTO 03004KT 10SM CLR 13/06 A3010 RMK AO2 SLP133 T01330056
Loading
Personal Weather Stations






























Interactive Weather Map
Tropical Storm Tracking
New forecast layout! Learn more

10-Day Weather Forecast

Advertisements
Track Severe Weather on mobile